createdAt,value
2022-11-07T00:01:21.433Z,69.37
2022-11-07T00:03:48.323Z,69.08
2022-11-07T00:06:16.491Z,70.15
2022-11-07T00:08:43.234Z,68.87
2022-11-07T00:11:10.341Z,68.73
2022-11-07T00:13:37.722Z,67.50
2022-11-07T00:16:05.992Z,67.32
2022-11-07T00:18:32.921Z,68.77
2022-11-07T00:21:03.251Z,67.20
2022-11-07T00:23:30.062Z,66.04
2022-11-07T00:26:08.742Z,65.72
2022-11-07T00:28:39.580Z,65.50
2022-11-07T00:31:07.245Z,66.88
2022-11-07T00:33:34.442Z,65.92
2022-11-07T00:36:02.662Z,65.46
2022-11-07T00:38:31.235Z,66.50
2022-11-07T00:41:02.447Z,66.93
2022-11-07T00:43:29.572Z,66.31
2022-11-07T00:45:56.421Z,65.39
2022-11-07T00:48:25.150Z,64.96
2022-11-07T00:50:51.944Z,64.36
2022-11-07T00:53:20.813Z,63.98
2022-11-07T00:55:47.765Z,64.17
2022-11-07T00:58:14.963Z,64.02
2022-11-07T01:00:42.144Z,63.90
2022-11-07T01:03:30.512Z,63.63
2022-11-07T01:06:01.471Z,63.41
2022-11-07T01:08:29.896Z,64.34
2022-11-07T01:10:56.686Z,63.07
2022-11-07T01:13:23.751Z,64.07
2022-11-07T01:15:50.831Z,65.94
2022-11-07T01:18:17.851Z,66.05
2022-11-07T01:20:45.004Z,65.06
2022-11-07T01:23:11.777Z,64.67
2022-11-07T01:25:39.321Z,64.81
2022-11-07T01:28:07.691Z,64.09
2022-11-07T01:30:37.873Z,64.65
2022-11-07T01:33:04.832Z,64.70
2022-11-07T01:35:32.815Z,63.96
2022-11-07T01:38:00.133Z,64.72
2022-11-07T01:40:27.643Z,71.51
2022-11-07T01:42:54.874Z,69.43
2022-11-07T01:45:31.254Z,69.47
2022-11-07T01:48:01.693Z,69.13
2022-11-07T01:50:28.771Z,71.73
2022-11-07T01:52:56.973Z,71.41
2022-11-07T01:55:26.903Z,71.77
2022-11-07T01:57:59.575Z,69.54
2022-11-07T02:00:33.753Z,72.09
2022-11-07T02:03:07.001Z,72.46
2022-11-07T02:05:53.973Z,71.59
2022-11-07T02:08:21.791Z,75.58
2022-11-07T02:10:48.902Z,74.96
2022-11-07T02:13:20.712Z,76.44
2022-11-07T02:15:47.483Z,73.81
2022-11-07T02:18:14.430Z,74.13
2022-11-07T02:20:41.371Z,74.36
2022-11-07T02:23:19.532Z,72.16
2022-11-07T02:25:46.389Z,72.06
2022-11-07T02:28:15.203Z,73.90
2022-11-07T02:30:41.960Z,71.17
2022-11-07T02:33:21.902Z,69.77
2022-11-07T02:35:50.371Z,69.19
2022-11-07T02:38:19.912Z,71.60
2022-11-07T02:40:50.042Z,71.66
2022-11-07T02:43:18.628Z,70.03
2022-11-07T02:45:46.792Z,69.22
2022-11-07T02:48:14.101Z,68.70
2022-11-07T02:50:42.161Z,68.23
2022-11-07T02:53:08.993Z,68.40
2022-11-07T02:55:35.763Z,67.96
2022-11-07T02:58:02.660Z,67.12
2022-11-07T03:00:29.462Z,67.05
2022-11-07T03:02:57.309Z,65.70
2022-11-07T03:05:24.192Z,65.65
2022-11-07T03:07:51.029Z,67.55
2022-11-07T03:10:18.342Z,66.97
2022-11-07T03:12:45.851Z,66.88
2022-11-07T03:15:13.650Z,66.42
2022-11-07T03:17:43.922Z,66.51
2022-11-07T03:20:20.724Z,66.43
2022-11-07T03:22:51.391Z,66.19
2022-11-07T03:25:20.803Z,67.70
2022-11-07T03:27:54.776Z,67.52
2022-11-07T03:30:24.904Z,67.18
2022-11-07T03:32:57.602Z,67.27
2022-11-07T03:35:32.579Z,66.75
2022-11-07T03:41:08.604Z,71.27
2022-11-07T03:43:35.462Z,72.75
2022-11-07T03:46:02.751Z,75.17
2022-11-07T03:48:29.621Z,73.90
2022-11-07T03:50:56.791Z,72.43
2022-11-07T03:53:25.830Z,72.15
2022-11-07T03:55:54.393Z,71.86
2022-11-07T03:58:21.340Z,70.99
2022-11-07T04:00:48.318Z,70.68
2022-11-07T04:03:15.134Z,70.40
2022-11-07T04:05:42.102Z,69.62
2022-11-07T04:08:08.892Z,68.81
2022-11-07T04:10:36.062Z,68.43
2022-11-07T04:13:21.523Z,70.93
2022-11-07T04:16:08.142Z,74.48
2022-11-07T04:18:35.578Z,77.02
2022-11-07T04:21:07.183Z,71.92
2022-11-07T04:23:34.921Z,72.37
2022-11-07T04:26:20.312Z,71.41
2022-11-07T04:28:50.211Z,70.75
2022-11-07T04:31:17.495Z,70.84
2022-11-07T04:33:44.199Z,71.48
2022-11-07T04:36:10.933Z,70.14
2022-11-07T04:38:37.802Z,69.50
2022-11-07T04:41:04.842Z,69.21
2022-11-07T04:43:32.032Z,68.89
2022-11-07T04:45:58.803Z,68.46
2022-11-07T04:48:25.672Z,67.97
2022-11-07T04:50:52.670Z,68.08
2022-11-07T04:53:19.445Z,67.77
2022-11-07T04:55:47.052Z,67.47
2022-11-07T04:58:13.758Z,67.48
2022-11-07T05:00:40.534Z,67.22
2022-11-07T05:03:07.547Z,67.07
2022-11-07T05:05:34.342Z,66.60
2022-11-07T05:08:01.092Z,66.18
2022-11-07T05:10:29.026Z,66.37
2022-11-07T05:12:56.847Z,67.08
2022-11-07T05:15:23.651Z,66.73
2022-11-07T05:17:50.479Z,65.96
2022-11-07T05:20:27.573Z,67.65
2022-11-07T05:23:13.445Z,66.80
2022-11-07T05:25:40.631Z,66.67
2022-11-07T05:28:07.637Z,66.43
2022-11-07T05:30:34.501Z,66.39
2022-11-07T05:33:01.291Z,66.45
2022-11-07T05:35:28.290Z,66.99
2022-11-07T05:37:55.104Z,67.80
2022-11-07T05:40:22.042Z,67.86
2022-11-07T05:42:49.553Z,71.04
2022-11-07T05:45:16.621Z,70.26
2022-11-07T05:47:43.402Z,69.55
2022-11-07T05:50:10.291Z,69.26
2022-11-07T05:52:37.397Z,69.08
2022-11-07T05:55:04.979Z,69.37
2022-11-07T05:57:31.743Z,68.94
2022-11-07T05:59:58.617Z,69.02
2022-11-07T06:02:25.381Z,68.98
2022-11-07T06:04:52.262Z,68.83
2022-11-07T06:07:19.075Z,70.40
2022-11-07T06:09:45.811Z,70.23
2022-11-07T06:12:12.812Z,68.57
2022-11-07T06:14:39.980Z,68.83
2022-11-07T06:17:07.670Z,70.20
2022-11-07T06:19:34.655Z,69.93
2022-11-07T06:22:01.943Z,70.73
2022-11-07T06:24:31.594Z,71.20
2022-11-07T06:26:59.461Z,72.07
2022-11-07T06:29:26.202Z,71.46
2022-11-07T06:31:55.433Z,71.46
2022-11-07T06:34:23.486Z,71.45
2022-11-07T06:37:31.903Z,72.37
2022-11-07T06:40:00.053Z,71.39
2022-11-07T06:42:33.687Z,71.41
2022-11-07T06:45:05.332Z,71.87
2022-11-07T06:47:50.509Z,72.54
2022-11-07T06:50:19.136Z,71.54
2022-11-07T06:53:38.287Z,70.08
2022-11-07T07:22:40.724Z,70.77
2022-11-07T07:35:29.250Z,73.10
2022-11-07T07:38:33.597Z,74.45
2022-11-07T07:42:59.931Z,75.37
2022-11-07T07:44:45.675Z,76.20
2022-11-07T07:54:00.969Z,74.07
2022-11-07T07:56:37.773Z,75.30
2022-11-07T07:59:25.635Z,76.62
2022-11-07T08:01:56.840Z,74.10
2022-11-07T08:04:30.165Z,73.04
2022-11-07T08:07:02.044Z,72.26
2022-11-07T08:09:31.544Z,71.53
2022-11-07T08:11:59.560Z,71.27
2022-11-07T08:14:28.650Z,70.66
2022-11-07T08:16:55.754Z,69.49
2022-11-07T08:19:27.828Z,69.02
2022-11-07T08:22:09.469Z,69.06
2022-11-07T08:24:51.004Z,69.11
2022-11-07T08:27:23.751Z,70.85
2022-11-07T08:29:53.365Z,74.16
2022-11-07T08:32:20.363Z,74.90
2022-11-07T08:34:59.313Z,72.03
2022-11-07T08:40:19.532Z,71.34
2022-11-07T08:42:49.589Z,72.08
2022-11-07T08:45:22.273Z,72.39
2022-11-07T08:47:52.254Z,71.83
2022-11-07T08:50:22.355Z,73.97
2022-11-07T08:52:49.442Z,73.37
2022-11-07T08:55:27.814Z,71.66
2022-11-07T08:57:58.571Z,71.74
2022-11-07T09:00:27.732Z,70.21
2022-11-07T09:06:18.815Z,69.46
2022-11-07T09:08:46.043Z,69.36
2022-11-07T09:11:16.071Z,68.67
2022-11-07T09:13:43.139Z,67.60
2022-11-07T09:16:22.424Z,66.94
2022-11-07T09:18:53.012Z,66.60
2022-11-07T09:21:24.266Z,65.68
2022-11-07T09:24:09.042Z,64.60
2022-11-07T09:30:10.925Z,62.84
2022-11-07T10:16:43.353Z,56.29
2022-11-07T10:22:57.657Z,56.21
2022-11-07T10:25:43.972Z,57.33
2022-11-07T10:28:26.721Z,56.34
2022-11-07T10:31:22.705Z,58.88
2022-11-07T10:34:33.182Z,55.49
2022-11-07T10:37:22.661Z,58.02
2022-11-07T10:46:55.552Z,57.32
2022-11-07T10:49:45.762Z,55.58
2022-11-07T10:52:36.763Z,54.40
2022-11-07T10:55:29.466Z,54.44
2022-11-07T10:58:50.553Z,54.23
2022-11-07T11:01:24.994Z,53.36
2022-11-07T11:04:04.672Z,54.56
2022-11-07T11:06:31.984Z,54.36
2022-11-07T11:09:02.335Z,51.70
2022-11-07T11:11:43.782Z,51.79
2022-11-07T11:14:14.895Z,53.05
2022-11-07T11:16:49.239Z,52.21
2022-11-07T11:19:27.599Z,50.53
2022-11-07T11:26:01.927Z,49.56
2022-11-07T11:28:33.585Z,50.52
2022-11-07T11:31:04.231Z,49.22
2022-11-07T11:33:58.563Z,48.35
2022-11-07T11:39:58.634Z,48.75
2022-11-07T11:42:54.444Z,48.09
2022-11-07T11:49:33.784Z,47.50
2022-11-07T11:52:30.478Z,48.84
2022-11-07T11:55:57.127Z,49.36
2022-11-07T11:58:32.227Z,48.90
2022-11-07T12:01:29.466Z,46.81
2022-11-07T12:04:15.216Z,47.06
2022-11-07T12:06:45.631Z,45.93
2022-11-07T12:09:17.132Z,47.00
2022-11-07T12:11:48.297Z,45.93
2022-11-07T12:14:33.766Z,46.75
2022-11-07T12:17:06.742Z,48.52
2022-11-07T12:19:36.999Z,49.00
2022-11-07T12:22:06.983Z,48.17
2022-11-07T12:24:45.965Z,47.02
2022-11-07T12:52:47.119Z,45.53
2022-11-07T13:49:44.204Z,43.91
2022-11-07T13:53:42.186Z,45.04
2022-11-07T14:00:28.357Z,42.96
2022-11-07T14:27:10.354Z,44.52
2022-11-07T14:28:29.024Z,44.48
2022-11-07T14:31:27.590Z,43.94
2022-11-07T14:34:04.864Z,44.10
2022-11-07T14:40:16.254Z,43.92
2022-11-07T14:46:21.097Z,44.76
2022-11-07T14:49:16.163Z,45.18
2022-11-07T15:42:23.664Z,50.63
2022-11-07T15:48:23.842Z,51.45
2022-11-07T15:50:50.681Z,51.58
2022-11-07T15:53:23.344Z,51.03
2022-11-07T15:55:54.172Z,51.56
2022-11-07T15:58:24.823Z,53.62
2022-11-07T16:00:53.682Z,53.86
2022-11-07T16:03:21.764Z,53.59
2022-11-07T16:05:50.243Z,54.61
2022-11-07T16:08:19.526Z,54.51
2022-11-07T16:10:48.814Z,55.31
2022-11-07T16:13:15.823Z,56.74
2022-11-07T16:15:45.802Z,56.96
2022-11-07T16:18:19.788Z,57.28
2022-11-07T16:20:47.518Z,56.96
2022-11-07T16:23:14.817Z,56.82
2022-11-07T16:25:42.924Z,56.31
2022-11-07T16:28:22.431Z,55.76
2022-11-07T16:30:49.603Z,55.24
2022-11-07T16:33:16.351Z,56.05
2022-11-07T16:35:43.395Z,55.96
2022-11-07T16:38:14.322Z,56.35
2022-11-07T16:40:41.486Z,56.46
2022-11-07T16:43:08.537Z,55.97
2022-11-07T16:45:35.923Z,56.41
2022-11-07T16:48:03.555Z,56.61
2022-11-07T16:50:30.287Z,56.68
2022-11-07T16:52:57.514Z,56.06
2022-11-07T16:55:24.315Z,55.76
2022-11-07T16:57:51.054Z,56.33
2022-11-07T17:00:22.702Z,58.32
2022-11-07T17:02:49.879Z,58.81
2022-11-07T17:05:17.015Z,62.30
2022-11-07T17:07:43.774Z,59.88
2022-11-07T17:30:41.592Z,59.01
2022-11-07T17:33:09.131Z,58.46
2022-11-07T17:35:36.410Z,58.45
2022-11-07T17:58:40.124Z,58.70
2022-11-07T18:01:28.447Z,58.97
2022-11-07T18:04:05.442Z,58.87
2022-11-07T18:06:34.691Z,59.18
2022-11-07T18:09:02.257Z,60.87
2022-11-07T18:11:29.856Z,59.99
2022-11-07T18:13:58.358Z,61.73
2022-11-07T18:16:32.133Z,62.51
2022-11-07T18:19:00.302Z,62.48
2022-11-07T18:21:38.220Z,62.04
2022-11-07T18:24:06.164Z,61.42
2022-11-07T18:26:33.786Z,60.99
2022-11-07T18:29:02.706Z,60.73
2022-11-07T18:31:29.596Z,60.34
2022-11-07T18:34:01.788Z,60.42
2022-11-07T18:36:30.890Z,59.75
2022-11-07T18:39:07.348Z,59.92
2022-11-07T18:41:34.222Z,60.13
2022-11-07T18:44:04.703Z,60.03
2022-11-07T18:46:32.013Z,59.69
2022-11-07T18:49:02.313Z,59.29
2022-11-07T18:51:29.115Z,59.35
2022-11-07T18:53:56.152Z,59.64
2022-11-07T18:56:22.984Z,59.88
2022-11-07T18:58:49.794Z,59.31
2022-11-07T19:01:18.901Z,59.36
2022-11-07T19:03:46.590Z,59.61
2022-11-07T19:06:15.315Z,59.05
2022-11-07T19:08:42.965Z,59.67
2022-11-07T19:11:11.272Z,59.20
2022-11-07T19:13:39.403Z,58.91
2022-11-07T19:16:10.079Z,58.67
2022-11-07T19:18:37.204Z,58.89
2022-11-07T19:21:04.462Z,58.28
2022-11-07T19:23:31.543Z,58.73
2022-11-07T19:25:58.751Z,58.69
2022-11-07T19:28:25.653Z,58.62
2022-11-07T19:30:52.411Z,58.20
2022-11-07T19:33:20.654Z,59.12
2022-11-07T19:35:47.772Z,58.57
2022-11-07T19:38:14.866Z,59.04
2022-11-07T19:40:41.989Z,59.55
2022-11-07T19:43:11.614Z,59.95
2022-11-07T19:45:41.766Z,60.57
2022-11-07T19:48:08.814Z,60.18
2022-11-07T19:50:37.889Z,60.85
2022-11-07T19:53:05.072Z,60.67
2022-11-07T19:55:31.882Z,60.13
2022-11-07T19:57:59.014Z,59.90
2022-11-07T20:00:26.574Z,59.87
2022-11-07T20:02:54.012Z,59.48
2022-11-07T20:05:24.444Z,59.00
2022-11-07T20:07:55.402Z,59.22
2022-11-07T20:10:24.008Z,59.59
2022-11-07T20:12:51.058Z,60.73
2022-11-07T20:15:17.824Z,60.41
2022-11-07T20:17:44.994Z,60.93
2022-11-07T20:20:13.733Z,60.18
2022-11-07T20:22:46.423Z,59.70
2022-11-07T20:25:13.665Z,59.76
2022-11-07T20:27:40.477Z,62.67
2022-11-07T20:30:07.765Z,61.84
2022-11-07T20:32:34.695Z,61.40
2022-11-07T20:35:01.514Z,61.56
2022-11-07T20:37:28.297Z,62.00
2022-11-07T20:39:55.035Z,62.92
2022-11-07T20:42:21.822Z,62.35
2022-11-07T20:44:49.823Z,61.88
2022-11-07T20:47:17.231Z,61.70
2022-11-07T20:49:44.123Z,61.53
2022-11-07T20:52:10.994Z,60.93
2022-11-07T20:54:38.065Z,61.39
2022-11-07T20:57:04.876Z,61.37
2022-11-07T20:59:31.963Z,61.17
2022-11-07T21:02:03.156Z,60.94
2022-11-07T21:04:49.993Z,60.49
2022-11-07T21:07:20.051Z,60.63
2022-11-07T21:09:46.984Z,61.31
2022-11-07T21:12:13.844Z,61.58
2022-11-07T21:14:42.404Z,61.50
2022-11-07T21:17:10.025Z,61.12
2022-11-07T21:19:37.202Z,60.69
2022-11-07T21:22:04.461Z,60.64
2022-11-07T21:24:31.863Z,61.10
2022-11-07T21:26:58.936Z,62.34
2022-11-07T21:29:29.567Z,61.50
2022-11-07T21:31:57.233Z,61.66
2022-11-07T21:34:24.410Z,63.45
2022-11-07T21:36:51.222Z,65.33
2022-11-07T21:39:18.209Z,63.63
2022-11-07T21:41:44.953Z,64.24
2022-11-07T21:44:14.535Z,64.17
2022-11-07T21:46:41.319Z,63.54
2022-11-07T21:49:08.178Z,63.28
2022-11-07T21:51:35.426Z,62.82
2022-11-07T21:54:04.004Z,62.46
2022-11-07T21:56:32.185Z,62.04
2022-11-07T21:59:00.513Z,62.00
2022-11-07T22:01:28.206Z,62.19
2022-11-07T22:04:11.827Z,61.92
2022-11-07T22:06:40.637Z,62.54
2022-11-07T22:09:08.273Z,62.65
2022-11-07T22:11:35.152Z,62.14
2022-11-07T22:14:01.993Z,62.28
2022-11-07T22:16:29.086Z,62.25
2022-11-07T22:18:55.942Z,62.20
2022-11-07T22:21:23.281Z,61.45
2022-11-07T22:23:50.465Z,61.12
2022-11-07T22:26:19.137Z,61.23
2022-11-07T22:28:46.638Z,61.05
2022-11-07T22:31:15.356Z,61.12
2022-11-07T22:33:42.166Z,62.38
2022-11-07T22:36:09.316Z,61.71
2022-11-07T22:38:36.614Z,61.45
2022-11-07T22:41:06.173Z,61.31
2022-11-07T22:43:33.450Z,60.87
2022-11-07T22:46:04.343Z,61.62
2022-11-07T22:48:31.193Z,62.45
2022-11-07T22:51:18.015Z,62.66
2022-11-07T22:53:45.162Z,64.15
2022-11-07T22:56:13.602Z,65.09
2022-11-07T22:58:40.853Z,64.68
2022-11-07T23:01:13.613Z,64.29
2022-11-07T23:03:40.466Z,63.89
2022-11-07T23:06:07.455Z,63.66
2022-11-07T23:08:34.263Z,63.43
2022-11-07T23:11:45.186Z,62.97
2022-11-07T23:13:50.383Z,62.72
2022-11-07T23:16:21.632Z,62.64
2022-11-07T23:18:48.503Z,62.46
2022-11-07T23:21:15.718Z,64.89
2022-11-07T23:56:13.036Z,60.98
2022-11-07T23:58:58.447Z,62.02
